sensor_id;sensor_type;location;lat;lon;timestamp;pressure;altitude;pressure_sealevel;temperature;humidity
62436;BME280;48480;50.252;18.848;2023-02-01T00:00:48;98084.07;;;1.87;84.90
62436;BME280;48480;50.252;18.848;2023-02-01T00:03:13;98087.77;;;1.86;84.85
62436;BME280;48480;50.252;18.848;2023-02-01T00:05:39;98082.70;;;1.85;84.82
62436;BME280;48480;50.252;18.848;2023-02-01T00:08:05;98080.74;;;1.85;84.70
62436;BME280;48480;50.252;18.848;2023-02-01T00:10:30;98068.01;;;1.83;84.57
62436;BME280;48480;50.252;18.848;2023-02-01T00:12:56;98061.02;;;1.80;84.60
62436;BME280;48480;50.252;18.848;2023-02-01T00:15:21;98054.27;;;1.78;84.52
62436;BME280;48480;50.252;18.848;2023-02-01T00:17:53;98036.52;;;1.66;84.49
62436;BME280;48480;50.252;18.848;2023-02-01T00:20:19;98048.34;;;1.75;84.42
62436;BME280;48480;50.252;18.848;2023-02-01T00:22:44;98048.61;;;1.73;84.38
62436;BME280;48480;50.252;18.848;2023-02-01T00:25:10;98040.89;;;1.72;84.23
62436;BME280;48480;50.252;18.848;2023-02-01T00:27:35;98045.76;;;1.73;84.08
62436;BME280;48480;50.252;18.848;2023-02-01T00:30:01;98055.95;;;1.76;84.02
62436;BME280;48480;50.252;18.848;2023-02-01T00:32:27;98052.63;;;1.77;84.08
62436;BME280;48480;50.252;18.848;2023-02-01T00:34:52;98050.30;;;1.79;84.01
62436;BME280;48480;50.252;18.848;2023-02-01T00:37:18;98043.36;;;1.82;84.00
62436;BME280;48480;50.252;18.848;2023-02-01T00:39:43;98040.13;;;1.86;83.72
62436;BME280;48480;50.252;18.848;2023-02-01T00:42:09;98035.31;;;1.87;83.70
62436;BME280;48480;50.252;18.848;2023-02-01T00:44:35;98035.55;;;1.92;83.63
62436;BME280;48480;50.252;18.848;2023-02-01T00:47:01;98028.35;;;1.97;83.38
62436;BME280;48480;50.252;18.848;2023-02-01T00:49:27;98040.47;;;1.98;83.16
62436;BME280;48480;50.252;18.848;2023-02-01T00:51:53;98058.70;;;2.06;82.58
62436;BME280;48480;50.252;18.848;2023-02-01T00:54:19;98092.34;;;2.11;82.24
62436;BME280;48480;50.252;18.848;2023-02-01T00:56:44;98135.89;;;2.13;82.49
62436;BME280;48480;50.252;18.848;2023-02-01T00:59:13;98182.40;;;2.16;82.76
62436;BME280;48480;50.252;18.848;2023-02-01T01:01:38;98172.23;;;2.15;83.00
62436;BME280;48480;50.252;18.848;2023-02-01T01:04:04;98166.27;;;2.09;83.00
62436;BME280;48480;50.252;18.848;2023-02-01T01:06:32;98163.84;;;2.08;83.19
62436;BME280;48480;50.252;18.848;2023-02-01T01:09:00;98157.65;;;2.04;83.15
62436;BME280;48480;50.252;18.848;2023-02-01T01:11:31;98159.66;;;2.03;83.32
62436;BME280;48480;50.252;18.848;2023-02-01T01:13:58;98163.37;;;2.01;83.29
62436;BME280;48480;50.252;18.848;2023-02-01T01:16:25;98169.30;;;1.95;82.99
62436;BME280;48480;50.252;18.848;2023-02-01T01:18:52;98170.95;;;1.81;82.89
62436;BME280;48480;50.252;18.848;2023-02-01T01:21:18;98171.30;;;1.66;83.12
62436;BME280;48480;50.252;18.848;2023-02-01T01:23:45;98164.27;;;1.56;83.46
62436;BME280;48480;50.252;18.848;2023-02-01T01:26:18;98159.98;;;1.49;83.58
62436;BME280;48480;50.252;18.848;2023-02-01T01:28:45;98167.05;;;1.38;83.72
62436;BME280;48480;50.252;18.848;2023-02-01T01:31:11;98171.01;;;1.29;83.93
62436;BME280;48480;50.252;18.848;2023-02-01T01:33:37;98173.77;;;1.22;84.31
62436;BME280;48480;50.252;18.848;2023-02-01T01:36:08;98185.02;;;1.14;84.47
62436;BME280;48480;50.252;18.848;2023-02-01T01:38:38;98189.81;;;1.09;84.61
62436;BME280;48480;50.252;18.848;2023-02-01T01:41:04;98189.42;;;1.06;84.97
62436;BME280;48480;50.252;18.848;2023-02-01T01:46:18;98188.38;;;1.05;85.21
62436;BME280;48480;50.252;18.848;2023-02-01T01:48:45;98182.25;;;1.03;85.38
62436;BME280;48480;50.252;18.848;2023-02-01T01:51:13;98172.40;;;1.01;85.27
62436;BME280;48480;50.252;18.848;2023-02-01T01:53:46;98171.44;;;0.93;85.38
62436;BME280;48480;50.252;18.848;2023-02-01T01:56:14;98168.90;;;0.82;85.73
62436;BME280;48480;50.252;18.848;2023-02-01T01:58:40;98168.35;;;0.74;86.17
62436;BME280;48480;50.252;18.848;2023-02-01T02:01:06;98161.60;;;0.66;86.40
62436;BME280;48480;50.252;18.848;2023-02-01T02:03:39;98157.61;;;0.60;86.86
62436;BME280;48480;50.252;18.848;2023-02-01T02:08:55;98145.45;;;0.54;87.19
62436;BME280;48480;50.252;18.848;2023-02-01T02:11:21;98153.81;;;0.58;87.47
62436;BME280;48480;50.252;18.848;2023-02-01T02:13:52;98152.98;;;0.62;87.46
62436;BME280;48480;50.252;18.848;2023-02-01T02:16:42;98148.92;;;0.65;87.53
62436;BME280;48480;50.252;18.848;2023-02-01T02:32:58;98155.85;;;0.76;87.34
62436;BME280;48480;50.252;18.848;2023-02-01T02:38:18;98158.52;;;0.73;87.16
62436;BME280;48480;50.252;18.848;2023-02-01T02:43:33;98156.98;;;0.72;87.64
62436;BME280;48480;50.252;18.848;2023-02-01T02:46:37;98155.58;;;0.75;87.49
62436;BME280;48480;50.252;18.848;2023-02-01T02:49:27;98163.72;;;0.78;87.45
62436;BME280;48480;50.252;18.848;2023-02-01T02:52:01;98163.66;;;0.78;87.27
62436;BME280;48480;50.252;18.848;2023-02-01T02:54:47;98161.77;;;0.78;87.17
62436;BME280;48480;50.252;18.848;2023-02-01T03:00:10;98159.80;;;0.80;87.28
62436;BME280;48480;50.252;18.848;2023-02-01T03:02:55;98151.57;;;0.77;87.26
62436;BME280;48480;50.252;18.848;2023-02-01T03:05:45;98153.98;;;0.75;87.55
62436;BME280;48480;50.252;18.848;2023-02-01T03:11:04;98150.42;;;0.82;87.59
62436;BME280;48480;50.252;18.848;2023-02-01T03:13:55;98151.70;;;0.82;87.39
62436;BME280;48480;50.252;18.848;2023-02-01T03:16:25;98157.45;;;0.82;87.15
62436;BME280;48480;50.252;18.848;2023-02-01T03:19:24;98156.91;;;0.79;87.17
62436;BME280;48480;50.252;18.848;2023-02-01T03:21:57;98168.83;;;0.78;87.41
62436;BME280;48480;50.252;18.848;2023-02-01T03:24:38;98173.77;;;0.73;87.64
62436;BME280;48480;50.252;18.848;2023-02-01T03:27:32;98185.45;;;0.72;87.77
62436;BME280;48480;50.252;18.848;2023-02-01T03:30:26;98186.95;;;0.66;87.86
62436;BME280;48480;50.252;18.848;2023-02-01T03:32:55;98190.70;;;0.67;87.83
62436;BME280;48480;50.252;18.848;2023-02-01T03:35:36;98189.12;;;0.67;87.90
62436;BME280;48480;50.252;18.848;2023-02-01T03:40:41;98187.30;;;0.63;87.88
62436;BME280;48480;50.252;18.848;2023-02-01T03:43:13;98190.71;;;0.60;87.99
62436;BME280;48480;50.252;18.848;2023-02-01T03:45:45;98191.08;;;0.57;88.10
62436;BME280;48480;50.252;18.848;2023-02-01T03:48:14;98184.79;;;0.56;88.49
62436;BME280;48480;50.252;18.848;2023-02-01T03:50:46;98181.04;;;0.56;88.37
62436;BME280;48480;50.252;18.848;2023-02-01T03:53:19;98179.16;;;0.60;88.66
62436;BME280;48480;50.252;18.848;2023-02-01T03:55:47;98175.89;;;0.60;88.21
62436;BME280;48480;50.252;18.848;2023-02-01T03:58:21;98180.42;;;0.58;88.49
62436;BME280;48480;50.252;18.848;2023-02-01T04:00:53;98177.20;;;0.59;88.37
62436;BME280;48480;50.252;18.848;2023-02-01T04:03:19;98172.65;;;0.58;88.32
62436;BME280;48480;50.252;18.848;2023-02-01T04:05:48;98167.24;;;0.54;88.31
62436;BME280;48480;50.252;18.848;2023-02-01T04:08:13;98167.84;;;0.55;88.28
62436;BME280;48480;50.252;18.848;2023-02-01T04:10:39;98167.11;;;0.57;88.37
62436;BME280;48480;50.252;18.848;2023-02-01T04:13:04;98169.98;;;0.61;88.36
62436;BME280;48480;50.252;18.848;2023-02-01T04:15:30;98162.70;;;0.64;88.12
62436;BME280;48480;50.252;18.848;2023-02-01T04:17:56;98168.27;;;0.68;88.00
62436;BME280;48480;50.252;18.848;2023-02-01T04:20:21;98169.92;;;0.71;88.07
62436;BME280;48480;50.252;18.848;2023-02-01T04:22:46;98165.45;;;0.75;87.93
62436;BME280;48480;50.252;18.848;2023-02-01T04:25:12;98167.05;;;0.80;87.89
62436;BME280;48480;50.252;18.848;2023-02-01T04:27:37;98164.91;;;0.86;87.87
62436;BME280;48480;50.252;18.848;2023-02-01T04:30:04;98164.18;;;0.91;87.86
62436;BME280;48480;50.252;18.848;2023-02-01T04:32:30;98156.41;;;0.89;87.60
62436;BME280;48480;50.252;18.848;2023-02-01T04:34:55;98157.39;;;0.97;87.48
62436;BME280;48480;50.252;18.848;2023-02-01T04:37:20;98156.17;;;1.00;87.29
62436;BME280;48480;50.252;18.848;2023-02-01T04:39:46;98157.41;;;1.02;87.41
62436;BME280;48480;50.252;18.848;2023-02-01T04:42:11;98155.88;;;1.05;87.28
62436;BME280;48480;50.252;18.848;2023-02-01T04:44:37;98156.52;;;1.06;87.07
62436;BME280;48480;50.252;18.848;2023-02-01T04:47:04;98155.88;;;1.08;87.13
62436;BME280;48480;50.252;18.848;2023-02-01T04:49:30;98153.93;;;1.08;86.64
62436;BME280;48480;50.252;18.848;2023-02-01T04:51:56;98157.90;;;1.08;86.67
62436;BME280;48480;50.252;18.848;2023-02-01T04:54:22;98158.42;;;1.10;86.48
62436;BME280;48480;50.252;18.848;2023-02-01T04:56:47;98155.48;;;1.11;86.41
62436;BME280;48480;50.252;18.848;2023-02-01T04:59:13;98154.90;;;1.11;86.12
62436;BME280;48480;50.252;18.848;2023-02-01T05:01:38;98153.42;;;1.12;86.23
62436;BME280;48480;50.252;18.848;2023-02-01T05:04:03;98155.69;;;1.12;85.92
62436;BME280;48480;50.252;18.848;2023-02-01T05:06:29;98152.04;;;1.12;85.72
62436;BME280;48480;50.252;18.848;2023-02-01T05:08:55;98155.05;;;1.13;85.65
62436;BME280;48480;50.252;18.848;2023-02-01T05:11:20;98154.69;;;1.15;85.66
62436;BME280;48480;50.252;18.848;2023-02-01T05:14:05;98151.00;;;1.17;85.57
62436;BME280;48480;50.252;18.848;2023-02-01T05:16:30;98150.27;;;1.19;85.52
62436;BME280;48480;50.252;18.848;2023-02-01T05:18:56;98145.77;;;1.19;85.28
62436;BME280;48480;50.252;18.848;2023-02-01T05:21:21;98145.13;;;1.21;85.15
62436;BME280;48480;50.252;18.848;2023-02-01T05:23:47;98143.71;;;1.21;85.09
62436;BME280;48480;50.252;18.848;2023-02-01T05:26:31;98141.38;;;1.20;85.02
62436;BME280;48480;50.252;18.848;2023-02-01T05:28:57;98142.34;;;1.21;84.87
62436;BME280;48480;50.252;18.848;2023-02-01T05:31:26;98140.13;;;1.25;84.84
62436;BME280;48480;50.252;18.848;2023-02-01T05:33:52;98142.72;;;1.26;84.81
62436;BME280;48480;50.252;18.848;2023-02-01T05:36:18;98141.02;;;1.27;84.65
62436;BME280;48480;50.252;18.848;2023-02-01T05:38:43;98141.41;;;1.28;84.46
62436;BME280;48480;50.252;18.848;2023-02-01T05:41:09;98135.63;;;1.28;84.36
62436;BME280;48480;50.252;18.848;2023-02-01T05:43:34;98135.42;;;1.28;84.25
62436;BME280;48480;50.252;18.848;2023-02-01T05:46:00;98137.22;;;1.28;84.13
62436;BME280;48480;50.252;18.848;2023-02-01T05:48:25;98134.95;;;1.28;84.07
62436;BME280;48480;50.252;18.848;2023-02-01T05:50:51;98134.05;;;1.29;83.98
62436;BME280;48480;50.252;18.848;2023-02-01T05:53:17;98131.84;;;1.31;83.84
62436;BME280;48480;50.252;18.848;2023-02-01T05:55:42;98130.26;;;1.33;83.85
62436;BME280;48480;50.252;18.848;2023-02-01T05:58:08;98127.83;;;1.34;83.73
62436;BME280;48480;50.252;18.848;2023-02-01T06:00:33;98131.90;;;1.38;83.78
62436;BME280;48480;50.252;18.848;2023-02-01T06:02:59;98130.33;;;1.41;83.69
62436;BME280;48480;50.252;18.848;2023-02-01T06:05:25;98134.29;;;1.43;83.71
62436;BME280;48480;50.252;18.848;2023-02-01T06:07:50;98133.29;;;1.44;83.60
62436;BME280;48480;50.252;18.848;2023-02-01T06:10:17;98140.41;;;1.46;83.66
62436;BME280;48480;50.252;18.848;2023-02-01T06:12:43;98140.11;;;1.48;83.42
62436;BME280;48480;50.252;18.848;2023-02-01T06:15:13;98145.98;;;1.50;83.40
62436;BME280;48480;50.252;18.848;2023-02-01T06:17:41;98153.64;;;1.50;83.29
62436;BME280;48480;50.252;18.848;2023-02-01T06:20:09;98155.70;;;1.51;83.30
62436;BME280;48480;50.252;18.848;2023-02-01T06:22:34;98149.73;;;1.54;83.04
62436;BME280;48480;50.252;18.848;2023-02-01T06:25:05;98149.69;;;1.54;82.74
62436;BME280;48480;50.252;18.848;2023-02-01T06:27:32;98148.77;;;1.55;82.66
62436;BME280;48480;50.252;18.848;2023-02-01T06:29:57;98156.07;;;1.57;82.71
62436;BME280;48480;50.252;18.848;2023-02-01T06:32:23;98152.70;;;1.59;82.69
62436;BME280;48480;50.252;18.848;2023-02-01T06:34:49;98153.43;;;1.60;82.46
62436;BME280;48480;50.252;18.848;2023-02-01T06:37:14;98155.70;;;1.60;82.47
62436;BME280;48480;50.252;18.848;2023-02-01T06:39:39;98154.70;;;1.62;82.50
62436;BME280;48480;50.252;18.848;2023-02-01T06:42:05;98148.34;;;1.64;82.32
62436;BME280;48480;50.252;18.848;2023-02-01T06:44:30;98152.16;;;1.65;82.29
62436;BME280;48480;50.252;18.848;2023-02-01T06:46:56;98146.19;;;1.68;82.24
62436;BME280;48480;50.252;18.848;2023-02-01T06:49:21;98142.02;;;1.69;82.05
62436;BME280;48480;50.252;18.848;2023-02-01T06:51:47;98138.52;;;1.69;81.74
62436;BME280;48480;50.252;18.848;2023-02-01T06:54:13;98132.13;;;1.72;81.75
62436;BME280;48480;50.252;18.848;2023-02-01T06:56:39;98134.03;;;1.71;81.68
62436;BME280;48480;50.252;18.848;2023-02-01T06:59:05;98128.73;;;1.72;81.66
62436;BME280;48480;50.252;18.848;2023-02-01T07:01:31;98132.74;;;1.72;81.75
62436;BME280;48480;50.252;18.848;2023-02-01T07:03:56;98130.65;;;1.71;81.71
62436;BME280;48480;50.252;18.848;2023-02-01T07:06:22;98132.23;;;1.70;81.50
62436;BME280;48480;50.252;18.848;2023-02-01T07:08:47;98133.65;;;1.69;81.71
62436;BME280;48480;50.252;18.848;2023-02-01T07:11:14;98131.43;;;1.69;81.67
62436;BME280;48480;50.252;18.848;2023-02-01T07:13:40;98131.80;;;1.71;81.42
62436;BME280;48480;50.252;18.848;2023-02-01T07:16:11;98133.93;;;1.71;81.28
62436;BME280;48480;50.252;18.848;2023-02-01T07:18:38;98126.63;;;1.71;81.11
62436;BME280;48480;50.252;18.848;2023-02-01T07:21:04;98130.69;;;1.75;80.83
62436;BME280;48480;50.252;18.848;2023-02-01T07:23:29;98129.64;;;1.78;80.80
62436;BME280;48480;50.252;18.848;2023-02-01T07:25:56;98129.27;;;1.79;80.52
62436;BME280;48480;50.252;18.848;2023-02-01T07:28:22;98133.44;;;1.79;80.55
62436;BME280;48480;50.252;18.848;2023-02-01T07:30:48;98134.50;;;1.83;80.66
62436;BME280;48480;50.252;18.848;2023-02-01T07:33:23;98134.60;;;1.86;80.54
62436;BME280;48480;50.252;18.848;2023-02-01T07:35:49;98135.39;;;1.87;80.24
62436;BME280;48480;50.252;18.848;2023-02-01T07:38:16;98134.60;;;1.90;80.34
62436;BME280;48480;50.252;18.848;2023-02-01T07:40:42;98133.75;;;1.93;80.24
62436;BME280;48480;50.252;18.848;2023-02-01T07:43:08;98133.27;;;1.92;80.21
62436;BME280;48480;50.252;18.848;2023-02-01T07:45:37;98135.39;;;1.91;80.12
62436;BME280;48480;50.252;18.848;2023-02-01T07:48:02;98137.55;;;1.91;80.38
62436;BME280;48480;50.252;18.848;2023-02-01T07:50:29;98134.64;;;1.92;80.24
62436;BME280;48480;50.252;18.848;2023-02-01T07:52:54;98133.11;;;1.90;80.18
62436;BME280;48480;50.252;18.848;2023-02-01T07:55:20;98130.42;;;1.90;80.13
62436;BME280;48480;50.252;18.848;2023-02-01T07:57:46;98130.16;;;1.87;80.33
62436;BME280;48480;50.252;18.848;2023-02-01T08:00:13;98135.65;;;1.91;80.21
62436;BME280;48480;50.252;18.848;2023-02-01T08:03:00;98135.13;;;1.92;80.19
62436;BME280;48480;50.252;18.848;2023-02-01T08:05:27;98137.30;;;1.92;80.28
62436;BME280;48480;50.252;18.848;2023-02-01T08:07:53;98141.78;;;1.94;80.37
62436;BME280;48480;50.252;18.848;2023-02-01T08:10:19;98137.70;;;1.95;80.14
62436;BME280;48480;50.252;18.848;2023-02-01T08:12:44;98134.44;;;1.95;80.03
62436;BME280;48480;50.252;18.848;2023-02-01T08:15:14;98136.81;;;1.94;80.04
62436;BME280;48480;50.252;18.848;2023-02-01T08:17:52;98137.60;;;1.94;79.92
62436;BME280;48480;50.252;18.848;2023-02-01T08:20:20;98138.04;;;1.96;80.13
62436;BME280;48480;50.252;18.848;2023-02-01T08:22:50;98131.73;;;1.98;80.23
62436;BME280;48480;50.252;18.848;2023-02-01T08:25:25;98133.48;;;2.02;80.18
62436;BME280;48480;50.252;18.848;2023-02-01T08:27:53;98122.98;;;2.00;80.09
62436;BME280;48480;50.252;18.848;2023-02-01T08:30:22;98129.64;;;2.08;79.99
62436;BME280;48480;50.252;18.848;2023-02-01T08:32:47;98119.93;;;2.02;79.97
62436;BME280;48480;50.252;18.848;2023-02-01T08:35:13;98097.89;;;1.92;79.89
62436;BME280;48480;50.252;18.848;2023-02-01T08:37:39;98130.10;;;2.17;79.70
62436;BME280;48480;50.252;18.848;2023-02-01T08:40:05;98130.11;;;2.19;79.25
62436;BME280;48480;50.252;18.848;2023-02-01T08:42:31;98102.14;;;2.03;79.12
62436;BME280;48480;50.252;18.848;2023-02-01T08:45:16;98130.36;;;2.24;79.13
62436;BME280;48480;50.252;18.848;2023-02-01T08:47:41;98131.19;;;2.28;78.95
62436;BME280;48480;50.252;18.848;2023-02-01T08:50:08;98118.83;;;2.26;78.90
62436;BME280;48480;50.252;18.848;2023-02-01T08:52:34;98131.39;;;2.37;78.57
62436;BME280;48480;50.252;18.848;2023-02-01T08:55:00;98132.38;;;2.39;78.30
62436;BME280;48480;50.252;18.848;2023-02-01T08:57:26;98131.10;;;2.43;78.23
62436;BME280;48480;50.252;18.848;2023-02-01T08:59:52;98133.80;;;2.46;78.13
62436;BME280;48480;50.252;18.848;2023-02-01T09:02:17;98131.61;;;2.50;78.01
62436;BME280;48480;50.252;18.848;2023-02-01T09:04:43;98135.73;;;2.55;77.60
62436;BME280;48480;50.252;18.848;2023-02-01T09:07:11;98094.39;;;2.36;77.44
62436;BME280;48480;50.252;18.848;2023-02-01T09:09:39;98130.09;;;2.61;77.38
62436;BME280;48480;50.252;18.848;2023-02-01T09:12:11;98129.86;;;2.65;77.45
62436;BME280;48480;50.252;18.848;2023-02-01T09:14:37;98118.65;;;2.62;77.20
62436;BME280;48480;50.252;18.848;2023-02-01T09:17:03;98129.10;;;2.69;77.16
62436;BME280;48480;50.252;18.848;2023-02-01T09:19:31;98129.30;;;2.71;77.14
62436;BME280;48480;50.252;18.848;2023-02-01T09:22:05;98124.58;;;2.74;77.37
62436;BME280;48480;50.252;18.848;2023-02-01T09:24:33;98123.05;;;2.73;77.41
62436;BME280;48480;50.252;18.848;2023-02-01T09:26:59;98111.66;;;2.70;77.34
62436;BME280;48480;50.252;18.848;2023-02-01T09:29:26;98123.02;;;2.80;77.16
62436;BME280;48480;50.252;18.848;2023-02-01T09:31:51;98125.45;;;2.81;77.07
62436;BME280;48480;50.252;18.848;2023-02-01T09:34:20;98119.78;;;2.81;77.25
62436;BME280;48480;50.252;18.848;2023-02-01T09:36:48;98120.67;;;2.81;77.16
62436;BME280;48480;50.252;18.848;2023-02-01T09:39:17;98116.59;;;2.82;77.14
62436;BME280;48480;50.252;18.848;2023-02-01T09:46:58;98110.51;;;2.91;77.29
62436;BME280;48480;50.252;18.848;2023-02-01T09:49:31;98104.39;;;2.95;77.17
62436;BME280;48480;50.252;18.848;2023-02-01T09:52:02;98106.27;;;3.03;77.13
62436;BME280;48480;50.252;18.848;2023-02-01T09:54:49;98099.41;;;3.12;76.81
62436;BME280;48480;50.252;18.848;2023-02-01T09:57:25;98102.08;;;3.18;76.66
62436;BME280;48480;50.252;18.848;2023-02-01T10:00:03;98096.55;;;3.21;76.59
62436;BME280;48480;50.252;18.848;2023-02-01T10:02:36;98093.34;;;3.26;76.58
62436;BME280;48480;50.252;18.848;2023-02-01T10:05:04;98088.59;;;3.31;76.26
62436;BME280;48480;50.252;18.848;2023-02-01T10:12:49;98084.73;;;3.41;76.00
62436;BME280;48480;50.252;18.848;2023-02-01T10:15:43;98079.76;;;3.42;75.79
62436;BME280;48480;50.252;18.848;2023-02-01T10:21:38;98079.12;;;3.40;75.21
62436;BME280;48480;50.252;18.848;2023-02-01T10:24:30;98073.55;;;3.42;75.47
62436;BME280;48480;50.252;18.848;2023-02-01T10:27:19;98076.49;;;3.45;75.53
62436;BME280;48480;50.252;18.848;2023-02-01T10:29:59;98070.42;;;3.47;75.43
62436;BME280;48480;50.252;18.848;2023-02-01T10:32:34;98073.59;;;3.49;75.36
62436;BME280;48480;50.252;18.848;2023-02-01T10:35:08;98074.29;;;3.48;75.33
62436;BME280;48480;50.252;18.848;2023-02-01T10:37:41;98076.64;;;3.46;75.36
62436;BME280;48480;50.252;18.848;2023-02-01T10:40:20;98072.39;;;3.48;75.45
62436;BME280;48480;50.252;18.848;2023-02-01T10:42:58;98065.95;;;3.50;75.48
62436;BME280;48480;50.252;18.848;2023-02-01T10:45:27;98068.71;;;3.49;75.27
62436;BME280;48480;50.252;18.848;2023-02-01T10:47:56;98070.27;;;3.52;75.42
62436;BME280;48480;50.252;18.848;2023-02-01T10:50:44;98070.54;;;3.53;75.22
62436;BME280;48480;50.252;18.848;2023-02-01T10:56:25;98062.31;;;3.42;75.50
62436;BME280;48480;50.252;18.848;2023-02-01T10:58:52;98054.27;;;3.45;75.49
62436;BME280;48480;50.252;18.848;2023-02-01T11:01:36;98056.41;;;3.50;75.57
62436;BME280;48480;50.252;18.848;2023-02-01T11:04:15;98055.40;;;3.50;75.67
62436;BME280;48480;50.252;18.848;2023-02-01T11:06:44;98056.46;;;3.49;75.37
62436;BME280;48480;50.252;18.848;2023-02-01T11:09:21;98057.81;;;3.47;75.49
62436;BME280;48480;50.252;18.848;2023-02-01T11:14:17;98053.83;;;3.48;75.88
62436;BME280;48480;50.252;18.848;2023-02-01T11:19:34;98018.92;;;3.36;75.89
62436;BME280;48480;50.252;18.848;2023-02-01T11:22:03;98022.76;;;3.35;75.83
62436;BME280;48480;50.252;18.848;2023-02-01T11:24:35;98040.63;;;3.52;75.55
62436;BME280;48480;50.252;18.848;2023-02-01T11:27:04;98041.05;;;3.53;75.70
62436;BME280;48480;50.252;18.848;2023-02-01T11:29:38;98033.97;;;3.56;75.73
62436;BME280;48480;50.252;18.848;2023-02-01T11:32:08;98026.65;;;3.55;75.62
62436;BME280;48480;50.252;18.848;2023-02-01T11:34:59;98021.13;;;3.56;75.90
62436;BME280;48480;50.252;18.848;2023-02-01T11:37:33;98024.32;;;3.66;76.53
62436;BME280;48480;50.252;18.848;2023-02-01T11:40:03;98021.21;;;3.70;76.42
62436;BME280;48480;50.252;18.848;2023-02-01T11:42:57;97992.08;;;3.53;76.14
62436;BME280;48480;50.252;18.848;2023-02-01T11:45:31;98009.15;;;3.64;76.33
62436;BME280;48480;50.252;18.848;2023-02-01T11:47:59;98014.12;;;3.67;76.27
62436;BME280;48480;50.252;18.848;2023-02-01T11:50:42;98011.18;;;3.64;76.31
62436;BME280;48480;50.252;18.848;2023-02-01T11:53:32;98006.83;;;3.66;76.64
62436;BME280;48480;50.252;18.848;2023-02-01T11:56:03;98004.91;;;3.70;76.58
62436;BME280;48480;50.252;18.848;2023-02-01T12:04:39;97993.23;;;3.82;76.05
62436;BME280;48480;50.252;18.848;2023-02-01T12:07:22;97993.95;;;3.84;76.11
62436;BME280;48480;50.252;18.848;2023-02-01T12:10:11;97982.64;;;3.85;75.96
62436;BME280;48480;50.252;18.848;2023-02-01T12:18:51;97976.69;;;3.85;75.74
62436;BME280;48480;50.252;18.848;2023-02-01T12:21:42;97981.25;;;3.86;75.87
62436;BME280;48480;50.252;18.848;2023-02-01T12:29:56;97974.96;;;3.82;75.57
62436;BME280;48480;50.252;18.848;2023-02-01T12:35:53;97971.17;;;3.81;76.39
62436;BME280;48480;50.252;18.848;2023-02-01T12:41:56;97965.38;;;3.81;76.37
62436;BME280;48480;50.252;18.848;2023-02-01T12:44:40;97970.06;;;3.79;76.23
62436;BME280;48480;50.252;18.848;2023-02-01T12:47:39;97931.98;;;3.55;76.43
62436;BME280;48480;50.252;18.848;2023-02-01T12:52:50;97955.63;;;3.65;76.90
62436;BME280;48480;50.252;18.848;2023-02-01T12:55:33;97950.20;;;3.61;76.90
62436;BME280;48480;50.252;18.848;2023-02-01T12:58:17;97944.88;;;3.58;77.23
62436;BME280;48480;50.252;18.848;2023-02-01T13:01:02;97936.33;;;3.55;77.36
62436;BME280;48480;50.252;18.848;2023-02-01T13:03:40;97929.09;;;3.52;77.41
62436;BME280;48480;50.252;18.848;2023-02-01T13:06:13;97921.17;;;3.48;77.30
62436;BME280;48480;50.252;18.848;2023-02-01T13:11:37;97911.16;;;3.37;77.55
62436;BME280;48480;50.252;18.848;2023-02-01T13:17:10;97913.80;;;3.39;77.65
62436;BME280;48480;50.252;18.848;2023-02-01T13:20:05;97904.94;;;3.40;77.56
62436;BME280;48480;50.252;18.848;2023-02-01T13:22:39;97904.95;;;3.43;77.48
62436;BME280;48480;50.252;18.848;2023-02-01T13:25:18;97902.88;;;3.44;77.43
62436;BME280;48480;50.252;18.848;2023-02-01T13:27:47;97907.77;;;3.47;77.36
62436;BME280;48480;50.252;18.848;2023-02-01T13:30:47;97906.70;;;3.54;77.31
62436;BME280;48480;50.252;18.848;2023-02-01T13:33:44;97907.11;;;3.59;76.63
62436;BME280;48480;50.252;18.848;2023-02-01T13:39:29;97916.20;;;3.66;76.96
62436;BME280;48480;50.252;18.848;2023-02-01T13:42:02;97921.39;;;3.68;77.26
62436;BME280;48480;50.252;18.848;2023-02-01T13:44:32;97930.52;;;3.67;77.28
62436;BME280;48480;50.252;18.848;2023-02-01T13:47:03;97941.60;;;3.59;77.59
62436;BME280;48480;50.252;18.848;2023-02-01T13:49:38;97947.47;;;3.44;78.23
62436;BME280;48480;50.252;18.848;2023-02-01T13:52:04;97961.35;;;3.35;78.77
62436;BME280;48480;50.252;18.848;2023-02-01T13:54:36;97958.79;;;3.19;78.96
62436;BME280;48480;50.252;18.848;2023-02-01T13:57:36;97960.02;;;3.05;79.35
62436;BME280;48480;50.252;18.848;2023-02-01T14:00:28;97949.05;;;2.85;79.53
62436;BME280;48480;50.252;18.848;2023-02-01T14:13:29;97955.92;;;2.56;80.56
62436;BME280;48480;50.252;18.848;2023-02-01T14:21:19;97949.50;;;2.22;81.40
62436;BME280;48480;50.252;18.848;2023-02-01T14:26:21;97945.89;;;2.04;82.23
62436;BME280;48480;50.252;18.848;2023-02-01T14:28:58;97945.60;;;1.97;82.45
62436;BME280;48480;50.252;18.848;2023-02-01T14:34:35;97946.80;;;1.88;83.19
62436;BME280;48480;50.252;18.848;2023-02-01T14:42:25;97941.56;;;1.90;83.85
62436;BME280;48480;50.252;18.848;2023-02-01T14:44:54;97939.27;;;1.91;83.95
62436;BME280;48480;50.252;18.848;2023-02-01T14:50:19;97932.91;;;1.85;84.21
62436;BME280;48480;50.252;18.848;2023-02-01T14:52:50;97940.17;;;1.92;84.38
62436;BME280;48480;50.252;18.848;2023-02-01T14:58:14;97939.73;;;1.98;84.72
62436;BME280;48480;50.252;18.848;2023-02-01T15:00:52;97947.02;;;1.99;84.92
62436;BME280;48480;50.252;18.848;2023-02-01T15:12:08;97962.98;;;2.15;85.24
62436;BME280;48480;50.252;18.848;2023-02-01T15:15:03;97938.39;;;2.03;85.14
62436;BME280;48480;50.252;18.848;2023-02-01T15:17:31;97963.46;;;2.25;85.15
62436;BME280;48480;50.252;18.848;2023-02-01T15:20:01;97974.14;;;2.29;85.16
62436;BME280;48480;50.252;18.848;2023-02-01T15:22:30;97979.94;;;2.34;85.06
62436;BME280;48480;50.252;18.848;2023-02-01T15:24:58;97982.45;;;2.42;84.98
62436;BME280;48480;50.252;18.848;2023-02-01T15:27:27;97983.84;;;2.47;84.92
62436;BME280;48480;50.252;18.848;2023-02-01T15:29:53;97979.41;;;2.52;84.90
62436;BME280;48480;50.252;18.848;2023-02-01T15:32:38;97976.98;;;2.53;84.65